createdAt,value
2022-11-05T00:01:56.320Z,0.57
2022-11-05T00:05:16.656Z,0.80
2022-11-05T00:08:37.232Z,0.80
2022-11-05T00:11:59.029Z,0.90
2022-11-05T00:15:34.214Z,1.17
2022-11-05T00:18:37.458Z,0.83
2022-11-05T00:21:58.720Z,0.60
2022-11-05T00:25:19.987Z,1.00
2022-11-05T00:28:24.520Z,2.73
2022-11-05T00:31:27.668Z,0.90
2022-11-05T00:34:30.858Z,1.20
2022-11-05T00:37:34.072Z,2.90
2022-11-05T00:40:37.389Z,1.47
2022-11-05T00:43:59.141Z,0.77
2022-11-05T00:47:16.275Z,0.60
2022-11-05T00:50:20.604Z,0.90
2022-11-05T00:53:23.861Z,0.90
2022-11-05T00:56:26.999Z,0.70
2022-11-05T00:59:31.521Z,1.60
2022-11-05T01:02:34.770Z,1.03
2022-11-05T01:05:42.608Z,0.87
2022-11-05T01:08:47.335Z,1.63
2022-11-05T01:11:51.437Z,1.43
2022-11-05T01:14:55.950Z,1.53
2022-11-05T01:17:59.095Z,1.63
2022-11-05T01:21:10.534Z,0.97
2022-11-05T01:24:13.654Z,1.00
2022-11-05T01:27:16.858Z,1.10
2022-11-05T01:30:21.879Z,0.73
2022-11-05T01:33:25.264Z,0.50
2022-11-05T01:36:28.385Z,0.70
2022-11-05T01:39:31.500Z,1.13
2022-11-05T01:42:34.710Z,0.70
2022-11-05T01:45:39.219Z,1.53
2022-11-05T01:48:42.507Z,0.40
2022-11-05T01:51:46.965Z,1.23
2022-11-05T01:54:50.147Z,0.60
2022-11-05T01:57:54.708Z,0.53
2022-11-05T02:00:59.435Z,0.80
2022-11-05T02:04:06.358Z,0.50
2022-11-05T02:07:11.603Z,0.53
2022-11-05T02:10:18.094Z,0.47
2022-11-05T02:13:21.229Z,0.60
2022-11-05T02:16:38.752Z,0.60
2022-11-05T02:20:10.882Z,0.73
2022-11-05T02:23:50.562Z,0.60
2022-11-05T02:27:08.082Z,1.13
2022-11-05T02:30:35.958Z,0.80
2022-11-05T02:33:45.479Z,0.73
2022-11-05T02:36:55.644Z,1.17
2022-11-05T02:40:12.424Z,0.63
2022-11-05T02:43:25.789Z,0.57
2022-11-05T02:46:39.975Z,1.37
2022-11-05T02:49:50.127Z,1.73
2022-11-05T02:53:00.477Z,0.50
2022-11-05T02:56:09.046Z,0.60
2022-11-05T02:59:12.155Z,0.50
2022-11-05T03:02:16.942Z,0.50
2022-11-05T03:05:21.748Z,0.97
2022-11-05T03:08:37.431Z,0.80
2022-11-05T03:11:49.840Z,1.47
2022-11-05T03:15:00.277Z,0.60
2022-11-05T03:18:13.081Z,1.10
2022-11-05T03:21:21.697Z,1.37
2022-11-05T03:24:28.632Z,1.00
2022-11-05T03:27:34.627Z,0.80
2022-11-05T03:30:41.165Z,1.43
2022-11-05T03:33:46.727Z,1.10
2022-11-05T03:36:53.888Z,1.10
2022-11-05T03:40:01.484Z,1.17
2022-11-05T03:43:08.792Z,1.57
2022-11-05T03:46:18.110Z,1.47
2022-11-05T03:49:26.421Z,1.33
2022-11-05T03:52:34.849Z,1.50
2022-11-05T03:55:44.450Z,0.87
2022-11-05T03:58:50.626Z,1.00
2022-11-05T04:01:57.505Z,0.77
2022-11-05T04:05:02.081Z,0.50
2022-11-05T04:08:22.764Z,0.90
2022-11-05T04:11:43.277Z,0.97
2022-11-05T04:14:46.357Z,0.60
2022-11-05T04:17:48.476Z,1.03
2022-11-05T04:21:10.363Z,0.80
2022-11-05T04:24:14.749Z,0.60
2022-11-05T04:27:17.844Z,0.60
2022-11-05T04:30:21.851Z,1.33
2022-11-05T04:33:25.105Z,1.13
2022-11-05T04:36:30.065Z,0.90
2022-11-05T04:39:33.129Z,1.13
2022-11-05T04:42:36.246Z,0.60
2022-11-05T04:45:39.320Z,0.83
2022-11-05T04:48:42.470Z,0.60
2022-11-05T04:51:46.937Z,0.60
2022-11-05T04:54:50.003Z,1.60
2022-11-05T04:57:54.481Z,0.60
2022-11-05T05:00:57.649Z,1.10
2022-11-05T05:04:00.799Z,1.43
2022-11-05T05:07:05.354Z,0.60
2022-11-05T05:10:09.624Z,0.83
2022-11-05T05:13:13.523Z,1.10
2022-11-05T05:16:20.950Z,0.50
2022-11-05T05:19:25.529Z,0.60
2022-11-05T05:22:29.222Z,0.60
2022-11-05T05:25:32.586Z,1.47
2022-11-05T05:28:35.704Z,0.60
2022-11-05T05:31:39.192Z,0.80
2022-11-05T05:34:42.321Z,1.83
2022-11-05T05:37:46.947Z,0.60
2022-11-05T05:40:50.816Z,2.10
2022-11-05T05:43:54.133Z,0.50
2022-11-05T05:46:57.279Z,0.60
2022-11-05T05:50:00.392Z,1.00
2022-11-05T05:53:04.857Z,0.50
2022-11-05T05:56:08.531Z,1.27
2022-11-05T05:59:11.687Z,1.07
2022-11-05T06:02:14.835Z,0.70
2022-11-05T06:05:18.077Z,0.77
2022-11-05T06:08:22.578Z,1.37
2022-11-05T06:11:26.450Z,0.70
2022-11-05T06:14:29.556Z,0.63
2022-11-05T06:17:34.387Z,1.57
2022-11-05T06:20:37.493Z,1.10
2022-11-05T06:23:43.645Z,0.73
2022-11-05T06:26:46.776Z,0.80
2022-11-05T06:29:49.917Z,1.70
2022-11-05T06:32:53.071Z,1.10
2022-11-05T06:35:59.078Z,0.83
2022-11-05T06:39:03.558Z,1.10
2022-11-05T06:42:22.086Z,1.10
2022-11-05T06:45:25.256Z,4.10
2022-11-05T06:48:28.915Z,5.77
2022-11-05T06:51:32.019Z,2.17
2022-11-05T06:54:36.522Z,1.40
2022-11-05T06:57:39.854Z,1.47
2022-11-05T07:00:43.219Z,1.30
2022-11-05T07:03:49.005Z,1.20
2022-11-05T07:06:52.135Z,1.63
2022-11-05T07:09:56.653Z,2.27
2022-11-05T07:13:07.840Z,1.47
2022-11-05T07:16:11.878Z,1.00
2022-11-05T07:19:15.006Z,2.50
2022-11-05T07:22:18.150Z,1.60
2022-11-05T07:25:22.706Z,2.60
2022-11-05T07:28:25.866Z,1.10
2022-11-05T07:31:29.008Z,1.27
2022-11-05T07:34:32.482Z,1.73
2022-11-05T07:37:42.916Z,1.20
2022-11-05T07:40:47.382Z,3.57
2022-11-05T07:43:50.508Z,4.27
2022-11-05T07:46:53.711Z,1.37
2022-11-05T07:49:56.835Z,1.27
2022-11-05T07:53:04.327Z,1.37
2022-11-05T07:56:09.174Z,1.80
2022-11-05T07:59:12.263Z,1.20
2022-11-05T08:02:15.564Z,3.83
2022-11-05T08:05:18.855Z,2.03
2022-11-05T08:08:22.100Z,1.93
2022-11-05T08:11:26.640Z,1.27
2022-11-05T08:14:29.818Z,7.50
2022-11-05T08:17:32.986Z,6.63
2022-11-05T08:20:37.040Z,2.73
2022-11-05T08:23:40.205Z,5.33
2022-11-05T08:26:44.660Z,1.20
2022-11-05T08:29:47.799Z,1.40
2022-11-05T08:32:50.971Z,1.03
2022-11-05T08:35:54.435Z,1.80
2022-11-05T08:38:57.568Z,2.17
2022-11-05T08:42:02.051Z,1.20
2022-11-05T08:45:05.850Z,0.70
2022-11-05T08:48:11.302Z,1.43
2022-11-05T08:51:14.465Z,2.00
2022-11-05T08:54:17.777Z,2.10
2022-11-05T08:57:22.273Z,0.83
2022-11-05T09:00:25.620Z,1.77
2022-11-05T09:03:28.731Z,0.90
2022-11-05T09:06:31.901Z,3.40
2022-11-05T09:09:35.058Z,1.27
2022-11-05T09:12:39.732Z,1.33
2022-11-05T09:15:43.071Z,1.37
2022-11-05T09:18:46.230Z,0.50
2022-11-05T09:21:49.368Z,1.17
2022-11-05T09:24:52.555Z,0.80
2022-11-05T09:28:13.384Z,1.37
2022-11-05T09:31:19.271Z,0.90
2022-11-05T09:34:22.413Z,1.50
2022-11-05T09:37:25.506Z,1.33
2022-11-05T09:40:31.013Z,1.00
2022-11-05T09:43:41.570Z,3.07
2022-11-05T09:46:49.152Z,0.77
2022-11-05T09:49:55.454Z,0.60
2022-11-05T09:52:58.999Z,0.80
2022-11-05T09:56:02.371Z,2.00
2022-11-05T09:59:15.591Z,0.80
2022-11-05T10:02:22.922Z,0.63
2022-11-05T10:05:28.195Z,1.23
2022-11-05T10:08:35.896Z,1.00
2022-11-05T10:11:43.888Z,0.80
2022-11-05T10:14:52.798Z,1.67
2022-11-05T10:18:00.008Z,1.63
2022-11-05T10:21:03.656Z,2.63
2022-11-05T10:24:13.943Z,0.90
2022-11-05T10:27:21.457Z,1.23
2022-11-05T10:30:26.387Z,1.20
2022-11-05T10:33:33.973Z,0.70
2022-11-05T10:36:39.282Z,1.57
2022-11-05T10:39:42.465Z,0.83
2022-11-05T10:42:55.665Z,0.83
2022-11-05T10:46:11.280Z,1.50
2022-11-05T10:49:42.049Z,0.73
2022-11-05T10:52:54.957Z,1.53
2022-11-05T10:55:58.592Z,1.03
2022-11-05T10:59:06.680Z,3.00
2022-11-05T11:02:24.761Z,1.17
2022-11-05T11:05:31.614Z,1.00
2022-11-05T11:08:37.188Z,1.60
2022-11-05T11:11:43.302Z,1.00
2022-11-05T11:15:01.821Z,1.30
2022-11-05T11:21:33.988Z,2.53
2022-11-05T11:24:40.297Z,1.33
2022-11-05T11:27:43.604Z,1.47
2022-11-05T11:30:51.335Z,1.87
2022-11-05T11:34:01.081Z,1.53
2022-11-05T11:37:08.762Z,1.07
2022-11-05T11:40:17.817Z,1.43
2022-11-05T11:43:28.128Z,1.10
2022-11-05T11:46:34.111Z,0.77
2022-11-05T11:49:45.735Z,1.43
2022-11-05T11:52:50.245Z,1.00
2022-11-05T11:56:06.050Z,1.63
2022-11-05T11:59:18.216Z,0.83
2022-11-05T12:02:47.547Z,1.43
2022-11-05T12:05:59.665Z,0.80
2022-11-05T12:09:13.162Z,0.70
2022-11-05T12:12:19.145Z,1.40
2022-11-05T12:15:35.674Z,0.87
2022-11-05T12:18:45.534Z,0.93
2022-11-05T12:22:00.630Z,0.90
2022-11-05T12:25:23.744Z,0.80
2022-11-05T12:29:17.793Z,0.63
2022-11-05T12:32:36.368Z,2.27
2022-11-05T12:35:57.749Z,1.57
2022-11-05T12:39:39.367Z,0.80
2022-11-05T12:42:58.010Z,0.57
2022-11-05T12:46:07.206Z,0.70
2022-11-05T12:49:46.763Z,1.43
2022-11-05T12:53:24.786Z,0.50
2022-11-05T12:56:34.557Z,0.70
2022-11-05T12:59:44.625Z,0.60
2022-11-05T13:02:54.137Z,0.60
2022-11-05T13:06:06.471Z,0.70
2022-11-05T13:09:14.856Z,3.10
2022-11-05T13:12:23.439Z,2.00
2022-11-05T13:15:33.482Z,0.60
2022-11-05T13:18:41.677Z,1.80
2022-11-05T13:21:48.709Z,1.83
2022-11-05T13:24:54.726Z,0.70
2022-11-05T13:28:15.546Z,1.00
2022-11-05T13:31:25.726Z,1.20
2022-11-05T13:34:33.458Z,1.50
2022-11-05T13:38:02.395Z,0.63
2022-11-05T13:41:25.804Z,0.90
2022-11-05T13:44:48.690Z,2.93
2022-11-05T13:48:12.276Z,1.20
2022-11-05T13:51:50.464Z,0.97
2022-11-05T13:55:24.623Z,1.60
2022-11-05T13:58:53.534Z,0.93
2022-11-05T14:02:00.268Z,0.83
2022-11-05T14:05:09.211Z,2.70
2022-11-05T14:08:18.595Z,2.30
2022-11-05T14:11:25.158Z,0.77
2022-11-05T14:14:31.612Z,0.97
2022-11-05T14:17:55.232Z,1.10
2022-11-05T14:21:01.956Z,1.80
2022-11-05T14:24:26.696Z,3.30
2022-11-05T14:27:54.719Z,3.03
2022-11-05T14:30:58.283Z,1.20
2022-11-05T14:34:17.624Z,1.27
2022-11-05T14:37:37.901Z,1.07
2022-11-05T14:40:44.247Z,1.23
2022-11-05T14:43:55.142Z,1.27
2022-11-05T14:47:01.981Z,1.63
2022-11-05T14:50:11.656Z,2.23
2022-11-05T14:53:31.773Z,0.90
2022-11-05T14:56:45.438Z,1.97
2022-11-05T14:59:54.589Z,0.90
2022-11-05T15:03:01.884Z,0.60
2022-11-05T15:06:21.142Z,1.67
2022-11-05T15:09:35.362Z,1.07
2022-11-05T15:12:43.934Z,1.73
2022-11-05T15:15:50.940Z,1.50
2022-11-05T15:18:57.113Z,2.20
2022-11-05T15:22:05.978Z,1.50
2022-11-05T15:25:20.032Z,1.87
2022-11-05T15:28:32.145Z,1.40
2022-11-05T15:31:41.293Z,1.10
2022-11-05T15:34:52.648Z,0.80
2022-11-05T15:38:02.065Z,2.00
2022-11-05T15:41:16.896Z,0.80
2022-11-05T15:44:28.955Z,1.13
2022-11-05T15:47:34.554Z,1.47
2022-11-05T15:50:38.749Z,1.20
2022-11-05T15:57:27.457Z,1.30
2022-11-05T16:00:33.415Z,1.30
2022-11-05T16:03:40.880Z,3.93
2022-11-05T16:06:48.409Z,1.50
2022-11-05T16:09:54.673Z,1.27
2022-11-05T16:13:21.056Z,1.70
2022-11-05T16:16:34.682Z,1.20
2022-11-05T16:19:42.402Z,1.40
2022-11-05T16:22:47.341Z,2.57
2022-11-05T16:25:51.648Z,1.10
2022-11-05T16:28:57.198Z,2.43
2022-11-05T16:32:03.569Z,1.10
2022-11-05T16:35:09.166Z,1.87
2022-11-05T16:38:15.284Z,1.10
2022-11-05T16:41:21.293Z,7.43
2022-11-05T16:44:26.557Z,5.17
2022-11-05T16:47:31.727Z,1.50
2022-11-05T16:50:36.403Z,1.40
2022-11-05T16:53:40.086Z,1.87
2022-11-05T16:56:44.082Z,1.37
2022-11-05T16:59:52.825Z,1.30
2022-11-05T17:02:57.398Z,1.93
2022-11-05T17:06:01.410Z,4.43
2022-11-05T17:09:05.810Z,2.43
2022-11-05T17:12:12.391Z,2.63
2022-11-05T17:15:26.147Z,4.00
2022-11-05T17:18:30.588Z,3.20
2022-11-05T17:21:34.966Z,1.33
2022-11-05T17:24:39.996Z,2.20
2022-11-05T17:27:44.335Z,4.10
2022-11-05T17:30:53.184Z,2.33
2022-11-05T17:33:58.253Z,1.67
2022-11-05T17:37:02.471Z,1.87
2022-11-05T17:40:11.924Z,1.70
2022-11-05T17:43:17.718Z,2.27
2022-11-05T17:46:23.698Z,3.50
2022-11-05T17:49:27.997Z,2.90
2022-11-05T17:52:32.684Z,2.50
2022-11-05T17:55:36.961Z,4.93
2022-11-05T17:58:41.254Z,2.87
2022-11-05T18:01:46.899Z,2.43
2022-11-05T18:04:52.026Z,1.70
2022-11-05T18:07:57.030Z,2.10
2022-11-05T18:11:00.967Z,2.50
2022-11-05T18:14:05.555Z,1.60
2022-11-05T18:17:14.487Z,4.30
2022-11-05T18:20:19.708Z,2.43
2022-11-05T18:23:25.012Z,2.90
2022-11-05T18:26:29.641Z,2.70
2022-11-05T18:29:38.155Z,3.60
2022-11-05T18:32:44.818Z,2.50
2022-11-05T18:35:49.695Z,2.80
2022-11-05T18:38:54.380Z,2.17
2022-11-05T18:41:58.333Z,2.47
2022-11-05T18:45:02.715Z,2.33
2022-11-05T18:48:11.418Z,2.30
2022-11-05T18:51:17.482Z,3.27
2022-11-05T18:54:21.948Z,3.63
2022-11-05T18:57:27.920Z,4.53
2022-11-05T19:00:32.177Z,6.33
2022-11-05T19:03:38.330Z,6.23
2022-11-05T19:06:44.309Z,6.17
2022-11-05T19:09:48.020Z,7.57
2022-11-05T19:12:51.912Z,6.83
2022-11-05T19:15:55.988Z,7.07
2022-11-05T19:19:02.977Z,9.57
2022-11-05T19:22:07.620Z,10.43
2022-11-05T19:25:13.140Z,11.87
2022-11-05T19:28:17.839Z,10.03
2022-11-05T19:31:24.143Z,8.80
2022-11-05T19:34:32.804Z,11.20
2022-11-05T19:37:37.568Z,8.53
2022-11-05T19:40:41.901Z,10.03
2022-11-05T19:43:47.604Z,10.80
2022-11-05T19:46:52.157Z,8.90
2022-11-05T19:50:01.027Z,8.90
2022-11-05T19:53:06.530Z,8.37
2022-11-05T19:56:13.041Z,10.97
2022-11-05T19:59:19.904Z,9.83
2022-11-05T20:02:24.062Z,9.23
2022-11-05T20:05:30.755Z,9.07
2022-11-05T20:08:43.494Z,9.03
2022-11-05T20:11:58.845Z,7.20
2022-11-05T20:15:04.396Z,9.60
2022-11-05T20:18:11.812Z,8.50
2022-11-05T20:21:18.777Z,7.27
2022-11-05T20:24:25.511Z,7.40
2022-11-05T20:27:30.414Z,7.60
2022-11-05T20:30:35.194Z,7.77
2022-11-05T20:33:41.490Z,7.70
2022-11-05T20:36:47.430Z,7.40
2022-11-05T20:39:51.511Z,7.27
2022-11-05T20:42:57.164Z,7.90
2022-11-05T20:46:01.189Z,7.43
2022-11-05T20:49:05.557Z,7.07
2022-11-05T20:52:12.571Z,7.30
2022-11-05T20:55:17.144Z,6.67
2022-11-05T20:58:23.181Z,6.20
2022-11-05T21:01:28.010Z,6.57
2022-11-05T21:04:33.532Z,7.20
2022-11-05T21:07:39.161Z,7.87
2022-11-05T21:10:47.177Z,7.97
2022-11-05T21:13:55.079Z,6.80
2022-11-05T21:17:00.721Z,7.90
2022-11-05T21:20:04.980Z,9.53
2022-11-05T21:23:10.523Z,8.00
2022-11-05T21:26:18.198Z,7.00
2022-11-05T21:29:22.077Z,5.33
2022-11-05T21:32:26.334Z,6.87
2022-11-05T21:35:30.177Z,5.30
2022-11-05T21:38:36.101Z,5.60
2022-11-05T21:41:40.013Z,5.30
2022-11-05T21:44:43.568Z,4.90
2022-11-05T21:47:47.410Z,5.80
2022-11-05T21:51:15.676Z,5.60
2022-11-05T21:54:38.503Z,5.93
2022-11-05T21:58:00.085Z,4.53
2022-11-05T22:01:04.271Z,6.80
2022-11-05T22:04:08.796Z,5.57
2022-11-05T22:07:13.672Z,5.77
2022-11-05T22:10:18.390Z,5.60
2022-11-05T22:13:21.631Z,5.37
2022-11-05T22:16:25.271Z,5.70
2022-11-05T22:19:28.839Z,5.43
2022-11-05T22:22:32.160Z,4.07
2022-11-05T22:25:37.735Z,4.30
2022-11-05T22:28:40.949Z,4.53
2022-11-05T22:31:44.211Z,12.50
2022-11-05T22:34:49.130Z,4.87
2022-11-05T22:37:52.362Z,6.40
2022-11-05T22:40:56.911Z,6.13
2022-11-05T22:44:00.186Z,6.67
2022-11-05T22:47:03.350Z,6.40
2022-11-05T22:50:07.352Z,4.60
2022-11-05T22:53:10.494Z,4.00
2022-11-05T22:56:17.211Z,4.50
2022-11-05T22:59:20.569Z,4.10
2022-11-05T23:02:23.822Z,3.97
2022-11-05T23:05:27.128Z,4.23
2022-11-05T23:08:48.794Z,4.40
2022-11-05T23:11:57.368Z,5.40
2022-11-05T23:15:02.431Z,5.43
2022-11-05T23:18:23.104Z,3.83
2022-11-05T23:21:43.604Z,3.80
2022-11-05T23:24:48.006Z,3.40
2022-11-05T23:27:55.217Z,3.80
2022-11-05T23:31:15.749Z,5.47
2022-11-05T23:34:18.839Z,4.27
2022-11-05T23:37:40.525Z,3.70
2022-11-05T23:40:57.492Z,4.03
2022-11-05T23:44:19.574Z,3.50
2022-11-05T23:47:40.208Z,4.23
2022-11-05T23:50:43.905Z,3.83
2022-11-05T23:53:47.003Z,3.80
2022-11-05T23:56:50.122Z,3.30
2022-11-05T23:59:54.618Z,3.53
